Time;durP1;ratioP1;P1;durP2;ratioP2;P2;SDS_P1;SDS_P2;PMS_P1;PMS_P2;Temp;Humidity;BMP_temperature;BMP_pressure;BME280_temperature;BME280_humidity;BME280_pressure;Samples;Min_cycle;Max_cycle;Signal;HPM_P1;HPM_P2
2022/11/27 00:01:48;;;;;;;18.83;5.80;;;5.60;99.90;;;;;;2615892;54;20367;-82
2022/11/27 00:07:35;;;;;;;10.23;5.07;;;6.00;99.90;;;;;;2615415;54;20430;-83
2022/11/27 00:13:23;;;;;;;12.67;6.17;;;6.00;99.90;;;;;;2615444;54;20162;-81
2022/11/27 00:32:51;;;;;;;7.53;5.53;;;6.00;99.90;;;;;;2616209;54;20444;-78
2022/11/27 00:38:42;;;;;;;11.53;5.13;;;5.90;99.90;;;;;;2614339;54;20395;-79
2022/11/27 00:44:29;;;;;;;11.53;4.90;;;5.80;99.90;;;;;;2615674;54;20434;-82
2022/11/27 00:50:17;;;;;;;7.50;5.30;;;5.80;99.90;;;;;;2615253;54;20127;-83
2022/11/27 00:56:05;;;;;;;12.10;5.40;;;5.80;99.90;;;;;;2615486;54;20203;-81
2022/11/27 01:01:52;;;;;;;8.77;5.13;;;5.70;99.90;;;;;;2616235;54;20126;-82
2022/11/27 01:07:40;;;;;;;7.73;5.07;;;5.90;99.90;;;;;;2618623;39;20220;-82
2022/11/27 01:13:32;;;;;;;7.50;5.00;;;5.70;99.90;;;;;;2617142;54;20515;-81
2022/11/27 01:23:07;;;;;;;11.27;5.40;;;5.60;99.90;;;;;;2618002;54;20411;-81
2022/11/27 01:28:56;;;;;;;9.30;4.53;;;5.70;99.90;;;;;;2616855;54;20865;-82
2022/11/27 01:34:46;;;;;;;8.70;4.53;;;5.60;99.90;;;;;;2617231;54;20396;-82
2022/11/27 01:37:49;;;;;;;12.30;5.60;;;5.70;99.90;;;;;;2617198;54;20427;-81
2022/11/27 01:40:18;;;;;;;7.97;5.23;;;5.70;99.90;;;;;;2616837;47;20427;-82
2022/11/27 01:46:18;;;;;;;6.43;5.73;;;5.60;99.90;;;;;;2616586;54;20391;-82
2022/11/27 01:58:33;;;;;;;6.97;5.97;;;5.60;99.90;;;;;;2617659;54;20395;-82
2022/11/27 02:04:21;;;;;;;9.40;4.77;;;5.40;99.90;;;;;;2618488;54;20408;-78
2022/11/27 02:10:10;;;;;;;9.23;6.00;;;5.30;99.90;;;;;;2617159;54;20370;-78
2022/11/27 02:29:12;;;;;;;9.20;4.73;;;5.50;99.90;;;;;;2615972;54;20366;-78
2022/11/27 02:35:22;;;;;;;7.20;5.57;;;5.50;99.90;;;;;;2616235;54;20463;-79
2022/11/27 02:41:18;;;;;;;8.10;5.67;;;5.40;99.90;;;;;;2615160;54;20358;-79
2022/11/27 02:47:06;;;;;;;10.13;5.10;;;5.50;99.90;;;;;;2616002;54;20450;-80
2022/11/27 02:52:59;;;;;;;6.70;5.40;;;5.50;99.90;;;;;;2615642;54;20412;-79
2022/11/27 02:58:48;;;;;;;6.80;5.33;;;5.50;99.90;;;;;;2616228;54;20527;-78
2022/11/27 03:04:41;;;;;;;7.57;5.20;;;5.50;99.90;;;;;;2617980;54;20410;-79
2022/11/27 03:23:05;;;;;;;8.50;5.50;;;5.60;99.90;;;;;;2616408;54;20441;-79
2022/11/27 03:28:56;;;;;;;9.60;6.10;;;5.70;99.90;;;;;;2616951;54;20248;-78
2022/11/27 03:34:44;;;;;;;6.30;5.23;;;5.60;99.90;;;;;;2616631;54;20399;-79
2022/11/27 04:00:09;;;;;;;13.70;6.97;;;6.00;99.90;;;;;;2616270;54;20949;-80
2022/11/27 04:05:57;;;;;;;6.60;5.70;;;6.10;99.90;;;;;;2617123;54;20425;-82
2022/11/27 04:11:45;;;;;;;7.20;5.60;;;6.00;99.90;;;;;;2617368;54;20402;-79
2022/11/27 04:17:32;;;;;;;8.97;6.67;;;6.10;99.90;;;;;;2617129;54;20183;-79
2022/11/27 04:33:27;;;;;;;7.90;6.37;;;6.20;99.90;;;;;;2618527;39;20769;-78
2022/11/27 04:39:15;;;;;;;7.40;6.57;;;6.30;99.90;;;;;;2617199;54;20155;-79
2022/11/27 04:45:03;;;;;;;10.27;6.87;;;6.40;99.90;;;;;;2617837;54;20731;-78
2022/11/27 04:50:53;;;;;;;12.40;7.27;;;6.40;99.90;;;;;;2616971;54;20414;-80
2022/11/27 04:56:41;;;;;;;10.47;6.23;;;6.50;99.90;;;;;;2616255;54;20378;-80
2022/11/27 05:02:29;;;;;;;14.33;7.47;;;6.50;99.90;;;;;;2617818;39;20643;-79
2022/11/27 05:08:18;;;;;;;11.90;6.83;;;6.60;99.90;;;;;;2617705;54;20239;-79
2022/11/27 05:20:16;;;;;;;8.30;6.90;;;6.70;99.90;;;;;;2618249;46;20839;-78
2022/11/27 05:26:04;;;;;;;9.67;6.90;;;6.70;99.90;;;;;;2617448;54;21602;-79
2022/11/27 05:31:52;;;;;;;8.13;6.17;;;6.70;99.90;;;;;;2617534;54;20163;-78
2022/11/27 05:37:40;;;;;;;12.00;7.20;;;6.70;99.90;;;;;;2617785;54;20383;-78
2022/11/27 05:43:28;;;;;;;7.67;7.00;;;6.80;99.90;;;;;;2618160;54;20171;-78
2022/11/27 05:49:17;;;;;;;9.63;8.30;;;6.80;99.90;;;;;;2617166;54;20130;-80
2022/11/27 05:55:05;;;;;;;8.57;6.90;;;6.80;99.90;;;;;;2616924;54;20414;-79
2022/11/27 06:00:53;;;;;;;11.30;8.47;;;6.80;99.90;;;;;;2616656;54;20491;-80
2022/11/27 06:06:40;;;;;;;8.37;7.57;;;6.80;99.90;;;;;;2617096;54;20146;-81
2022/11/27 06:12:31;;;;;;;10.80;7.80;;;6.80;99.90;;;;;;2617032;54;20235;-79
2022/11/27 06:18:18;;;;;;;8.23;7.47;;;6.80;99.90;;;;;;2616447;54;20375;-79
2022/11/27 06:24:06;;;;;;;8.20;7.40;;;6.80;99.90;;;;;;2616458;54;20160;-79
2022/11/27 06:26:34;;;;;;;13.50;8.47;;;6.80;99.90;;;;;;2615805;47;20526;-80
2022/11/27 06:29:00;;;;;;;9.80;7.47;;;6.80;99.90;;;;;;2617037;54;20162;-79
2022/11/27 06:34:48;;;;;;;9.40;7.90;;;6.80;99.90;;;;;;2617613;54;20456;-79
2022/11/27 06:40:37;;;;;;;10.83;8.57;;;6.90;99.90;;;;;;2617252;54;20668;-82
2022/11/27 06:46:26;;;;;;;10.97;7.87;;;7.00;99.90;;;;;;2616907;54;20391;-83
2022/11/27 06:52:14;;;;;;;12.50;7.87;;;7.00;99.90;;;;;;2616791;54;20477;-82
2022/11/27 06:58:02;;;;;;;8.97;8.13;;;7.10;99.90;;;;;;2616820;54;20137;-82
2022/11/27 07:03:49;;;;;;;8.10;7.30;;;7.10;99.90;;;;;;2616520;39;20547;-83
2022/11/27 07:09:38;;;;;;;9.23;8.20;;;7.10;99.90;;;;;;2616383;54;20411;-83
2022/11/27 07:15:26;;;;;;;8.00;7.20;;;7.00;99.90;;;;;;2616585;54;20157;-84
2022/11/27 07:21:15;;;;;;;9.60;8.07;;;7.10;99.90;;;;;;2616187;54;20410;-82
2022/11/27 07:31:08;;;;;;;7.63;6.93;;;7.10;99.90;;;;;;2615103;54;21004;-83
2022/11/27 07:36:56;;;;;;;9.97;9.07;;;7.20;99.90;;;;;;2615711;54;20435;-82
2022/11/27 07:40:00;;;;;;;10.83;9.10;;;7.20;99.90;;;;;;2615414;54;20412;-82
2022/11/27 07:42:26;;;;;;;10.10;9.10;;;7.30;99.90;;;;;;2614801;47;20204;-82
2022/11/27 07:48:14;;;;;;;9.50;7.77;;;7.40;99.90;;;;;;2616648;54;20530;-80
2022/11/27 07:54:02;;;;;;;9.10;8.17;;;7.50;99.90;;;;;;2617234;54;20134;-82
2022/11/27 07:59:51;;;;;;;8.33;7.70;;;7.60;99.90;;;;;;2616551;54;20123;-82
2022/11/27 08:05:39;;;;;;;14.00;9.50;;;7.60;99.90;;;;;;2617213;54;20382;-81
2022/11/27 08:11:29;;;;;;;13.87;7.43;;;7.70;99.90;;;;;;2615802;54;20142;-81
2022/11/27 08:17:17;;;;;;;8.83;7.27;;;7.80;99.90;;;;;;2616193;54;20379;-83
2022/11/27 08:23:04;;;;;;;7.90;7.20;;;7.90;99.90;;;;;;2616461;54;20375;-81
2022/11/27 08:28:53;;;;;;;12.13;7.90;;;8.00;99.90;;;;;;2616973;54;20194;-79
2022/11/27 08:34:41;;;;;;;9.17;7.40;;;8.20;99.90;;;;;;2616437;54;20514;-81
2022/11/27 08:40:28;;;;;;;7.57;6.87;;;8.40;99.90;;;;;;2617801;39;20377;-81
2022/11/27 08:46:16;;;;;;;8.50;7.80;;;8.50;99.90;;;;;;2618109;54;20118;-83
2022/11/27 08:52:04;;;;;;;9.57;6.60;;;8.60;99.90;;;;;;2618017;54;20119;-81
2022/11/27 08:57:52;;;;;;;9.00;8.30;;;9.00;99.40;;;;;;2617797;54;20117;-82
2022/11/27 09:03:40;;;;;;;7.20;6.63;;;9.10;97.90;;;;;;2617581;54;20257;-80
2022/11/27 09:09:28;;;;;;;8.23;7.50;;;9.20;99.90;;;;;;2617620;54;20217;-82
2022/11/27 09:15:16;;;;;;;7.60;6.90;;;9.10;98.90;;;;;;2617314;54;20383;-82
2022/11/27 09:21:07;;;;;;;8.33;7.53;;;9.40;92.30;;;;;;2618421;54;20443;-81
2022/11/27 09:31:10;;;;;;;7.27;6.60;;;9.30;87.20;;;;;;2617618;54;20583;-83
2022/11/27 09:36:57;;;;;;;7.50;6.90;;;9.30;82.40;;;;;;2617479;54;20411;-83
2022/11/27 09:42:58;;;;;;;7.50;6.90;;;9.40;82.40;;;;;;2617461;54;20142;-82
2022/11/27 09:48:49;;;;;;;6.80;6.37;;;9.60;76.70;;;;;;2617498;54;20431;-84
2022/11/27 09:54:42;;;;;;;8.37;7.57;;;9.80;63.20;;;;;;2618136;39;20757;-81
2022/11/27 10:00:30;;;;;;;7.63;7.00;;;9.90;65.30;;;;;;2617880;54;20956;-81
2022/11/27 10:06:35;;;;;;;8.60;7.90;;;10.20;55.40;;;;;;2618459;54;20188;-82
2022/11/27 10:18:58;;;;;;;7.83;7.33;;;10.20;49.10;;;;;;2616961;54;20379;-81
2022/11/27 10:25:06;;;;;;;9.77;7.47;;;10.40;50.00;;;;;;2615910;54;20437;-81
2022/11/27 10:34:22;;;;;;;7.93;7.33;;;10.40;48.00;;;;;;2615345;54;20443;-82
2022/11/27 10:40:13;;;;;;;7.17;6.57;;;10.50;44.40;;;;;;2616582;54;20387;-82
2022/11/27 10:52:24;;;;;;;8.77;7.93;;;10.50;43.30;;;;;;2615222;54;20446;-81
2022/11/27 10:58:22;;;;;;;8.17;7.57;;;10.50;44.50;;;;;;2616141;54;20498;-82
2022/11/27 11:04:13;;;;;;;7.77;7.27;;;10.30;42.90;;;;;;2616152;54;20384;-81
2022/11/27 11:10:01;;;;;;;13.10;8.00;;;10.30;43.40;;;;;;2616674;54;20391;-81
2022/11/27 11:15:53;;;;;;;8.43;7.77;;;10.30;44.80;;;;;;2615589;54;20408;-82
2022/11/27 11:21:43;;;;;;;7.90;7.40;;;10.30;44.20;;;;;;2616152;54;20500;-81
2022/11/27 11:44:00;;;;;;;9.10;8.30;;;10.10;53.80;;;;;;2616309;54;20403;-79
2022/11/27 11:49:49;;;;;;;13.40;8.73;;;10.20;59.00;;;;;;2617222;54;20403;-79
2022/11/27 12:51:19;;;;;;;6.00;5.00;;;9.60;96.60;;;;;;2618847;54;20555;-78
2022/11/27 13:00:20;;;;;;;5.43;4.90;;;9.70;94.70;;;;;;2615208;54;20411;-77
2022/11/27 13:03:23;;;;;;;5.70;4.83;;;9.70;96.40;;;;;;2617466;54;20415;-78
2022/11/27 13:15:33;;;;;;;11.23;5.30;;;9.80;93.20;;;;;;2618394;54;20379;-78
2022/11/27 13:21:28;;;;;;;5.90;5.40;;;9.90;91.30;;;;;;2619077;39;20817;-78
2022/11/27 13:27:19;;;;;;;10.30;5.77;;;9.70;94.60;;;;;;2618691;54;20407;-78
2022/11/27 13:30:23;;;;;;;6.33;5.73;;;9.80;94.30;;;;;;2618821;54;20399;-78
2022/11/27 13:50:03;;;;;;;6.03;5.43;;;9.90;91.30;;;;;;2617081;54;20395;-81
2022/11/27 13:55:55;;;;;;;5.97;5.17;;;9.90;79.80;;;;;;2617073;54;20406;-80
2022/11/27 14:01:53;;;;;;;7.50;5.50;;;10.00;80.50;;;;;;2617328;54;20443;-80
2022/11/27 14:21:01;;;;;;;6.77;5.80;;;10.10;66.70;;;;;;2615838;54;20399;-80
2022/11/27 14:26:49;;;;;;;8.70;6.20;;;10.00;68.10;;;;;;2616269;39;20587;-79
2022/11/27 14:32:37;;;;;;;5.80;5.33;;;10.00;63.90;;;;;;2616227;54;20392;-83
2022/11/27 14:38:26;;;;;;;5.73;5.33;;;9.90;74.00;;;;;;2616673;54;20395;-84
2022/11/27 14:44:14;;;;;;;6.23;5.63;;;9.80;83.00;;;;;;2616561;54;20403;-82
2022/11/27 14:50:02;;;;;;;6.17;5.67;;;9.80;74.60;;;;;;2616453;54;21004;-83
2022/11/27 14:55:53;;;;;;;5.90;5.50;;;9.90;78.70;;;;;;2616899;54;20972;-83
2022/11/27 15:05:05;;;;;;;7.23;5.90;;;9.30;99.90;;;;;;2618005;46;20391;-82
2022/11/27 15:10:55;;;;;;;10.70;9.70;;;9.40;99.90;;;;;;2615832;54;20387;-80
2022/11/27 15:16:49;;;;;;;9.83;8.93;;;8.90;99.90;;;;;;2617139;39;20882;-82
2022/11/27 15:22:37;;;;;;;7.93;7.17;;;8.70;99.90;;;;;;2619008;54;20440;-83
2022/11/27 15:38:16;;;;;;;7.63;5.40;;;9.10;99.90;;;;;;2618684;54;20415;-81
2022/11/27 15:44:04;;;;;;;5.77;5.27;;;9.20;99.90;;;;;;2618123;31;20867;-82
2022/11/27 15:49:51;;;;;;;7.73;5.03;;;9.20;99.90;;;;;;2615450;54;20162;-83
2022/11/27 15:55:38;;;;;;;5.93;4.90;;;9.20;99.90;;;;;;2616696;54;20272;-83
2022/11/27 16:04:47;;;;;;;5.77;5.20;;;9.30;96.70;;;;;;2615840;54;20503;-82
2022/11/27 16:10:39;;;;;;;6.00;5.43;;;9.20;96.50;;;;;;2615912;39;21152;-84
2022/11/27 16:16:26;;;;;;;5.00;4.60;;;9.30;93.50;;;;;;2615894;54;20395;-82
2022/11/27 16:22:14;;;;;;;4.87;4.47;;;9.40;89.50;;;;;;2617046;54;20155;-83
2022/11/27 16:28:02;;;;;;;6.10;5.50;;;9.40;89.50;;;;;;2617715;54;20154;-83
2022/11/27 16:37:36;;;;;;;6.80;6.20;;;9.30;90.10;;;;;;2617317;54;20897;-84
2022/11/27 16:43:28;;;;;;;7.37;5.93;;;9.20;91.00;;;;;;2617262;54;21049;-83
2022/11/27 16:49:17;;;;;;;7.70;6.93;;;9.30;87.80;;;;;;2617070;54;20408;-84
2022/11/27 16:55:05;;;;;;;6.87;6.27;;;9.20;88.80;;;;;;2616997;54;20493;-83
2022/11/27 17:00:53;;;;;;;5.80;5.20;;;9.30;85.60;;;;;;2617935;54;20957;-83
2022/11/27 17:06:41;;;;;;;6.07;5.47;;;9.30;85.60;;;;;;2617382;54;20431;-84
2022/11/27 17:12:31;;;;;;;5.63;5.20;;;9.30;81.90;;;;;;2617591;54;20419;-83
2022/11/27 17:18:18;;;;;;;6.00;5.50;;;9.10;91.60;;;;;;2617917;54;20387;-83
2022/11/27 17:24:09;;;;;;;8.70;7.80;;;9.10;83.20;;;;;;2616525;54;20122;-85
2022/11/27 17:29:57;;;;;;;8.10;7.40;;;9.00;87.30;;;;;;2617205;54;20441;-83
2022/11/27 17:33:06;;;;;;;8.13;6.53;;;9.10;84.10;;;;;;2617550;39;20781;-85
2022/11/27 17:35:32;;;;;;;7.53;6.90;;;9.10;88.30;;;;;;2616668;47;20703;-83
2022/11/27 17:41:19;;;;;;;7.87;7.23;;;9.10;86.50;;;;;;2615050;54;20125;-83
2022/11/27 17:47:07;;;;;;;7.70;6.90;;;9.20;83.10;;;;;;2617078;54;20383;-85
2022/11/27 17:52:54;;;;;;;6.43;5.93;;;9.10;82.10;;;;;;2615588;54;20134;-83
2022/11/27 17:58:42;;;;;;;6.83;6.23;;;9.00;87.10;;;;;;2615824;54;20130;-82
2022/11/27 18:04:29;;;;;;;9.17;8.37;;;9.20;79.00;;;;;;2615849;54;20404;-83
2022/11/27 18:10:17;;;;;;;6.20;5.70;;;9.10;80.20;;;;;;2617813;54;20395;-83
2022/11/27 18:16:08;;;;;;;7.20;6.70;;;9.00;90.00;;;;;;2618459;54;20379;-83
2022/11/27 18:21:55;;;;;;;8.23;7.53;;;9.10;81.90;;;;;;2618026;54;20490;-83
2022/11/27 18:27:42;;;;;;;6.20;5.60;;;9.10;91.40;;;;;;2617052;39;20558;-81
2022/11/27 18:37:16;;;;;;;11.93;9.40;;;8.70;99.90;;;;;;2617024;54;20455;-82
2022/11/27 18:43:03;;;;;;;5.63;5.20;;;8.80;96.80;;;;;;2617297;54;20375;-83
2022/11/27 18:48:50;;;;;;;6.70;6.10;;;8.80;96.10;;;;;;2616205;54;20130;-81
2022/11/27 18:54:38;;;;;;;6.30;5.70;;;8.90;96.10;;;;;;2616211;54;20123;-83
2022/11/27 19:00:25;;;;;;;6.97;6.37;;;8.90;92.20;;;;;;2617826;54;20147;-81
2022/11/27 19:06:16;;;;;;;7.77;6.33;;;8.90;96.30;;;;;;2618770;39;20571;-82
2022/11/27 19:12:04;;;;;;;6.70;6.13;;;8.80;96.20;;;;;;2616914;54;20407;-82
2022/11/27 19:17:52;;;;;;;7.13;6.43;;;8.80;95.80;;;;;;2617219;54;20126;-81
2022/11/27 19:23:40;;;;;;;45.90;25.10;;;8.90;92.80;;;;;;2617477;54;20134;-82
2022/11/27 19:29:28;;;;;;;12.90;10.10;;;8.90;93.80;;;;;;2615896;54;20379;-79
2022/11/27 19:35:23;;;;;;;8.67;7.73;;;8.70;99.90;;;;;;2616781;54;20186;-80
2022/11/27 19:38:38;;;;;;;5.90;5.30;;;8.70;97.50;;;;;;2616334;39;20806;-80
2022/11/27 19:44:26;;;;;;;6.60;6.00;;;8.50;99.90;;;;;;2616920;54;20428;-80
2022/11/27 19:50:14;;;;;;;7.00;6.40;;;8.50;99.90;;;;;;2617102;54;20121;-80
2022/11/27 19:56:06;;;;;;;6.17;5.67;;;8.60;98.10;;;;;;2617515;54;20130;-80
2022/11/27 20:01:55;;;;;;;7.53;5.33;;;8.80;93.20;;;;;;2617404;39;20749;-81
2022/11/27 20:07:44;;;;;;;7.50;6.90;;;8.80;93.50;;;;;;2616424;54;20386;-80
2022/11/27 20:13:32;;;;;;;7.67;6.97;;;8.70;93.60;;;;;;2616439;54;20914;-81
2022/11/27 20:19:19;;;;;;;7.27;5.70;;;8.70;96.10;;;;;;2616321;54;20411;-79
2022/11/27 20:25:08;;;;;;;5.70;5.20;;;8.60;96.80;;;;;;2616592;54;20139;-80
2022/11/27 20:30:58;;;;;;;6.03;5.37;;;8.60;94.70;;;;;;2615946;54;20528;-80
2022/11/27 20:34:03;;;;;;;9.93;8.93;;;8.70;93.20;;;;;;2615630;39;20836;-81
2022/11/27 20:46:51;;;;;;;7.30;6.60;;;8.80;91.40;;;;;;2614984;54;20420;-80
2022/11/27 20:52:39;;;;;;;8.20;6.70;;;8.80;92.30;;;;;;2614873;54;20154;-80
2022/11/27 20:58:26;;;;;;;8.63;5.87;;;8.80;91.80;;;;;;2614985;54;20235;-80
2022/11/27 21:04:25;;;;;;;11.53;6.00;;;8.70;93.80;;;;;;2616158;54;20140;-80
2022/11/27 21:10:15;;;;;;;7.60;6.73;;;8.80;93.40;;;;;;2615700;54;20387;-79
2022/11/27 21:16:06;;;;;;;8.00;7.20;;;8.90;91.20;;;;;;2615277;54;20472;-80
2022/11/27 21:21:54;;;;;;;8.10;7.30;;;8.90;91.80;;;;;;2617475;54;20946;-80
2022/11/27 21:27:42;;;;;;;7.77;7.17;;;8.80;93.00;;;;;;2617232;54;20989;-80
2022/11/27 21:33:29;;;;;;;6.90;6.20;;;8.90;91.30;;;;;;2617601;54;20130;-80
2022/11/27 21:39:20;;;;;;;9.03;8.13;;;8.90;92.00;;;;;;2617858;54;20139;-80
2022/11/27 21:45:08;;;;;;;7.20;6.70;;;8.90;93.40;;;;;;2617252;54;20407;-79
2022/11/27 21:51:01;;;;;;;7.70;6.97;;;8.70;99.90;;;;;;2617280;54;20379;-80
2022/11/27 21:56:52;;;;;;;6.10;5.60;;;8.60;99.90;;;;;;2616776;54;20427;-80
2022/11/27 22:02:43;;;;;;;6.87;6.27;;;8.60;99.90;;;;;;2617545;54;20969;-77
2022/11/27 22:08:31;;;;;;;6.20;5.70;;;8.70;99.90;;;;;;2617648;54;20387;-80
2022/11/27 22:14:19;;;;;;;8.43;6.97;;;8.70;99.90;;;;;;2617692;54;20471;-79
2022/11/27 22:20:09;;;;;;;7.70;6.30;;;8.60;99.90;;;;;;2618061;54;20482;-79
2022/11/27 22:26:05;;;;;;;6.87;5.90;;;8.60;99.90;;;;;;2617515;54;20376;-79
2022/11/27 22:31:53;;;;;;;8.30;6.57;;;8.30;99.90;;;;;;2618065;39;20801;-79
2022/11/27 22:37:41;;;;;;;6.13;5.60;;;8.30;99.90;;;;;;2617353;54;20178;-80
2022/11/27 22:43:29;;;;;;;5.53;5.07;;;8.30;99.90;;;;;;2617675;46;20135;-79
2022/11/27 22:49:17;;;;;;;10.70;5.73;;;8.30;99.90;;;;;;2617318;39;20608;-79
2022/11/27 22:55:05;;;;;;;12.50;6.20;;;8.20;99.90;;;;;;2617425;54;20383;-79
2022/11/27 23:00:55;;;;;;;6.73;5.60;;;8.10;99.90;;;;;;2616883;54;20407;-77
2022/11/27 23:06:47;;;;;;;4.40;3.60;;;7.90;99.90;;;;;;2616757;54;20460;-79
2022/11/27 23:12:34;;;;;;;5.50;5.00;;;7.80;99.90;;;;;;2617259;54;20391;-78
2022/11/27 23:18:21;;;;;;;6.30;5.20;;;7.50;99.90;;;;;;2614941;54;20146;-76
2022/11/27 23:24:12;;;;;;;9.93;5.80;;;7.30;99.90;;;;;;2614492;54;20146;-76
2022/11/27 23:29:59;;;;;;;8.30;5.40;;;7.20;99.90;;;;;;2614800;54;20502;-76
2022/11/27 23:42:30;;;;;;;10.30;6.17;;;7.10;99.90;;;;;;2615226;46;20407;-77
2022/11/27 23:48:17;;;;;;;8.00;5.60;;;7.10;99.90;;;;;;2615403;54;20138;-77
2022/11/27 23:54:08;;;;;;;8.33;6.27;;;7.10;99.90;;;;;;2616304;54;20150;-76
2022/11/27 23:59:56;;;;;;;9.53;7.17;;;7.10;99.90;;;;;;2615784;54;20383;-76
